sensor_id;sensor_type;location;lat;lon;timestamp;pressure;altitude;pressure_sealevel;temperature;humidity
17362;BME280;8798;51.938;4.348;2023-04-25T00:01:52;100668.63;;;8.48;72.02
17362;BME280;8798;51.938;4.348;2023-04-25T00:04:19;100671.31;;;8.48;72.76
17362;BME280;8798;51.938;4.348;2023-04-25T00:06:51;100684.53;;;8.50;72.38
17362;BME280;8798;51.938;4.348;2023-04-25T00:09:19;100688.31;;;8.47;72.34
17362;BME280;8798;51.938;4.348;2023-04-25T00:11:52;100683.28;;;8.44;73.00
17362;BME280;8798;51.938;4.348;2023-04-25T00:14:21;100674.53;;;8.42;72.42
17362;BME280;8798;51.938;4.348;2023-04-25T00:16:49;100666.75;;;8.39;72.49
17362;BME280;8798;51.938;4.348;2023-04-25T00:19:21;100662.66;;;8.35;71.96
17362;BME280;8798;51.938;4.348;2023-04-25T00:21:51;100658.44;;;8.32;72.82
17362;BME280;8798;51.938;4.348;2023-04-25T00:24:21;100648.16;;;8.28;72.77
17362;BME280;8798;51.938;4.348;2023-04-25T00:26:50;100646.47;;;8.27;72.72
17362;BME280;8798;51.938;4.348;2023-04-25T00:29:23;100657.19;;;8.27;72.74
17362;BME280;8798;51.938;4.348;2023-04-25T00:31:52;100658.16;;;8.26;72.09
17362;BME280;8798;51.938;4.348;2023-04-25T00:34:22;100664.50;;;8.25;72.31
17362;BME280;8798;51.938;4.348;2023-04-25T00:36:52;100699.59;;;8.31;72.49
17362;BME280;8798;51.938;4.348;2023-04-25T00:39:21;100746.09;;;8.40;72.20
17362;BME280;8798;51.938;4.348;2023-04-25T00:41:54;100781.06;;;8.48;72.26
17362;BME280;8798;51.938;4.348;2023-04-25T00:44:22;100814.44;;;8.54;72.45
17362;BME280;8798;51.938;4.348;2023-04-25T00:46:52;100820.50;;;8.56;72.72
17362;BME280;8798;51.938;4.348;2023-04-25T00:49:20;100846.84;;;8.60;72.05
17362;BME280;8798;51.938;4.348;2023-04-25T00:51:54;100859.97;;;8.64;72.63
17362;BME280;8798;51.938;4.348;2023-04-25T00:54:31;100870.69;;;8.64;72.27
17362;BME280;8798;51.938;4.348;2023-04-25T00:56:59;100854.91;;;8.60;72.37
17362;BME280;8798;51.938;4.348;2023-04-25T00:59:31;100875.31;;;8.61;72.88
17362;BME280;8798;51.938;4.348;2023-04-25T01:01:59;100888.41;;;8.65;72.72
17362;BME280;8798;51.938;4.348;2023-04-25T01:04:27;100901.69;;;8.66;72.33
17362;BME280;8798;51.938;4.348;2023-04-25T01:07:04;100927.19;;;8.70;72.62
17362;BME280;8798;51.938;4.348;2023-04-25T01:09:33;100935.81;;;8.74;72.38
17362;BME280;8798;51.938;4.348;2023-04-25T01:12:01;100970.91;;;8.80;72.61
17362;BME280;8798;51.938;4.348;2023-04-25T01:14:29;100973.59;;;8.80;72.68
17362;BME280;8798;51.938;4.348;2023-04-25T01:16:58;100975.28;;;8.81;72.48
17362;BME280;8798;51.938;4.348;2023-04-25T01:19:26;100979.66;;;8.82;72.56
17362;BME280;8798;51.938;4.348;2023-04-25T01:22:04;101005.31;;;8.85;71.95
17362;BME280;8798;51.938;4.348;2023-04-25T01:24:33;101014.78;;;8.89;72.50
17362;BME280;8798;51.938;4.348;2023-04-25T01:27:01;101010.41;;;8.88;72.40
17362;BME280;8798;51.938;4.348;2023-04-25T01:29:34;101013.22;;;8.87;72.16
17362;BME280;8798;51.938;4.348;2023-04-25T01:32:06;101009.69;;;8.86;72.43
17362;BME280;8798;51.938;4.348;2023-04-25T01:34:45;101007.03;;;8.86;72.42
17362;BME280;8798;51.938;4.348;2023-04-25T01:37:19;101004.63;;;8.83;72.19
17362;BME280;8798;51.938;4.348;2023-04-25T01:39:48;100996.84;;;8.80;71.78
17362;BME280;8798;51.938;4.348;2023-04-25T01:42:21;100982.03;;;8.76;72.40
17362;BME280;8798;51.938;4.348;2023-04-25T01:44:51;100984.56;;;8.77;71.92
17362;BME280;8798;51.938;4.348;2023-04-25T01:47:19;101006.59;;;8.81;71.89
17362;BME280;8798;51.938;4.348;2023-04-25T01:49:48;101008.25;;;8.82;71.61
17362;BME280;8798;51.938;4.348;2023-04-25T01:52:22;100995.44;;;8.76;72.13
17362;BME280;8798;51.938;4.348;2023-04-25T01:54:50;100986.69;;;8.74;71.79
17362;BME280;8798;51.938;4.348;2023-04-25T01:57:21;100982.28;;;8.73;71.58
17362;BME280;8798;51.938;4.348;2023-04-25T01:59:49;100991.19;;;8.73;72.00
17362;BME280;8798;51.938;4.348;2023-04-25T02:02:19;100979.91;;;8.70;71.28
17362;BME280;8798;51.938;4.348;2023-04-25T02:04:53;100972.97;;;8.67;71.68
17362;BME280;8798;51.938;4.348;2023-04-25T02:07:26;100976.50;;;8.68;71.59
17362;BME280;8798;51.938;4.348;2023-04-25T02:10:01;100985.25;;;8.70;71.80
17362;BME280;8798;51.938;4.348;2023-04-25T02:12:32;100998.63;;;8.70;71.62
17362;BME280;8798;51.938;4.348;2023-04-25T02:14:59;100997.81;;;8.69;71.17
17362;BME280;8798;51.938;4.348;2023-04-25T02:17:29;100996.97;;;8.69;71.17
17362;BME280;8798;51.938;4.348;2023-04-25T02:19:59;100986.53;;;8.66;71.47
17362;BME280;8798;51.938;4.348;2023-04-25T02:22:31;101011.06;;;8.71;71.12
17362;BME280;8798;51.938;4.348;2023-04-25T02:25:02;101017.09;;;8.73;71.71
17362;BME280;8798;51.938;4.348;2023-04-25T02:27:31;101020.66;;;8.73;70.93
17362;BME280;8798;51.938;4.348;2023-04-25T02:29:59;101025.03;;;8.74;70.90
17362;BME280;8798;51.938;4.348;2023-04-25T02:32:28;101037.44;;;8.75;70.86
17362;BME280;8798;51.938;4.348;2023-04-25T02:35:00;101048.00;;;8.77;70.76
17362;BME280;8798;51.938;4.348;2023-04-25T02:37:34;101057.75;;;8.78;71.05
17362;BME280;8798;51.938;4.348;2023-04-25T02:40:10;101062.13;;;8.79;71.26
17362;BME280;8798;51.938;4.348;2023-04-25T02:42:41;101062.13;;;8.79;70.84
17362;BME280;8798;51.938;4.348;2023-04-25T02:45:11;101065.78;;;8.78;70.62
17362;BME280;8798;51.938;4.348;2023-04-25T02:47:42;101065.78;;;8.78;70.75
17362;BME280;8798;51.938;4.348;2023-04-25T02:50:10;101050.69;;;8.77;71.07
17362;BME280;8798;51.938;4.348;2023-04-25T02:52:42;101058.72;;;8.77;70.83
17362;BME280;8798;51.938;4.348;2023-04-25T02:55:12;101067.59;;;8.77;70.62
17362;BME280;8798;51.938;4.348;2023-04-25T02:57:41;101079.03;;;8.79;70.98
17362;BME280;8798;51.938;4.348;2023-04-25T03:00:12;101093.97;;;8.82;70.96
17362;BME280;8798;51.938;4.348;2023-04-25T03:02:41;101098.38;;;8.83;70.98
17362;BME280;8798;51.938;4.348;2023-04-25T03:05:13;101105.41;;;8.84;70.93
17362;BME280;8798;51.938;4.348;2023-04-25T03:07:43;101115.13;;;8.85;70.62
17362;BME280;8798;51.938;4.348;2023-04-25T03:10:18;101105.41;;;8.84;70.66
17362;BME280;8798;51.938;4.348;2023-04-25T03:12:48;101109.09;;;8.83;70.19
17362;BME280;8798;51.938;4.348;2023-04-25T03:15:22;101106.41;;;8.83;70.91
17362;BME280;8798;51.938;4.348;2023-04-25T03:17:51;101113.44;;;8.84;70.57
17362;BME280;8798;51.938;4.348;2023-04-25T03:20:23;101122.31;;;8.85;70.54
17362;BME280;8798;51.938;4.348;2023-04-25T03:22:53;101118.94;;;8.82;70.79
17362;BME280;8798;51.938;4.348;2023-04-25T03:25:21;101107.38;;;8.82;70.02
17362;BME280;8798;51.938;4.348;2023-04-25T03:27:49;101128.53;;;8.85;70.28
17362;BME280;8798;51.938;4.348;2023-04-25T03:30:24;101136.31;;;8.88;70.29
17362;BME280;8798;51.938;4.348;2023-04-25T03:33:01;101146.16;;;8.88;70.35
17362;BME280;8798;51.938;4.348;2023-04-25T03:35:31;101150.56;;;8.89;70.70
17362;BME280;8798;51.938;4.348;2023-04-25T03:38:02;101154.91;;;8.90;70.56
17362;BME280;8798;51.938;4.348;2023-04-25T03:40:31;101145.31;;;8.87;70.73
17362;BME280;8798;51.938;4.348;2023-04-25T03:43:02;101137.44;;;8.86;70.21
17362;BME280;8798;51.938;4.348;2023-04-25T03:45:31;101149.00;;;8.86;70.24
17362;BME280;8798;51.938;4.348;2023-04-25T03:48:01;101149.81;;;8.87;70.49
17362;BME280;8798;51.938;4.348;2023-04-25T03:50:29;101132.19;;;8.84;69.88
17362;BME280;8798;51.938;4.348;2023-04-25T03:52:57;101114.00;;;8.78;70.03
17362;BME280;8798;51.938;4.348;2023-04-25T03:55:31;101074.63;;;8.69;70.16
17362;BME280;8798;51.938;4.348;2023-04-25T03:57:59;101024.09;;;8.54;70.20
17362;BME280;8798;51.938;4.348;2023-04-25T04:00:31;100957.91;;;8.35;70.41
17362;BME280;8798;51.938;4.348;2023-04-25T04:02:59;100920.53;;;8.24;69.42
17362;BME280;8798;51.938;4.348;2023-04-25T04:05:28;100922.22;;;8.25;70.27
17362;BME280;8798;51.938;4.348;2023-04-25T04:08:00;100945.19;;;8.28;69.37
17362;BME280;8798;51.938;4.348;2023-04-25T04:10:31;100957.34;;;8.32;70.17
17362;BME280;8798;51.938;4.348;2023-04-25T04:13:02;100973.28;;;8.33;69.67
17362;BME280;8798;51.938;4.348;2023-04-25T04:15:31;100976.78;;;8.34;70.14
17362;BME280;8798;51.938;4.348;2023-04-25T04:18:02;100987.34;;;8.35;69.77
17362;BME280;8798;51.938;4.348;2023-04-25T04:20:31;100996.25;;;8.36;70.27
17362;BME280;8798;51.938;4.348;2023-04-25T04:22:59;100996.25;;;8.36;70.13
17362;BME280;8798;51.938;4.348;2023-04-25T04:25:33;100990.44;;;8.31;69.29
17362;BME280;8798;51.938;4.348;2023-04-25T04:28:03;100981.69;;;8.29;69.33
17362;BME280;8798;51.938;4.348;2023-04-25T04:30:31;100973.78;;;8.27;69.28
17362;BME280;8798;51.938;4.348;2023-04-25T04:33:02;100966.88;;;8.25;69.79
17362;BME280;8798;51.938;4.348;2023-04-25T04:35:34;100953.19;;;8.18;69.54
17362;BME280;8798;51.938;4.348;2023-04-25T04:38:02;100928.81;;;8.11;69.50
17362;BME280;8798;51.938;4.348;2023-04-25T04:40:31;100917.50;;;8.08;69.25
17362;BME280;8798;51.938;4.348;2023-04-25T04:43:03;100917.66;;;8.06;68.97
17362;BME280;8798;51.938;4.348;2023-04-25T04:45:31;100910.88;;;8.02;69.42
17362;BME280;8798;51.938;4.348;2023-04-25T04:48:01;100908.31;;;8.01;69.04
17362;BME280;8798;51.938;4.348;2023-04-25T04:50:29;100906.75;;;7.98;69.60
17362;BME280;8798;51.938;4.348;2023-04-25T04:53:02;100898.00;;;7.96;69.81
17362;BME280;8798;51.938;4.348;2023-04-25T04:55:32;100895.63;;;7.93;69.25
17362;BME280;8798;51.938;4.348;2023-04-25T04:58:03;100883.63;;;7.87;69.64
17362;BME280;8798;51.938;4.348;2023-04-25T05:00:33;100889.81;;;7.88;69.89
17362;BME280;8798;51.938;4.348;2023-04-25T05:03:01;100902.22;;;7.89;69.36
17362;BME280;8798;51.938;4.348;2023-04-25T05:05:30;100914.34;;;7.93;69.38
17362;BME280;8798;51.938;4.348;2023-04-25T05:07:57;100931.94;;;7.95;69.23
17362;BME280;8798;51.938;4.348;2023-04-25T05:10:25;100948.59;;;7.99;69.36
17362;BME280;8798;51.938;4.348;2023-04-25T05:12:56;100960.97;;;8.00;69.52
17362;BME280;8798;51.938;4.348;2023-04-25T05:15:34;100997.91;;;8.06;70.05
17362;BME280;8798;51.938;4.348;2023-04-25T05:18:04;101022.28;;;8.13;69.81
17362;BME280;8798;51.938;4.348;2023-04-25T05:20:32;101070.50;;;8.23;69.10
17362;BME280;8798;51.938;4.348;2023-04-25T05:23:02;101107.47;;;8.29;69.47
17362;BME280;8798;51.938;4.348;2023-04-25T05:25:30;101124.81;;;8.34;69.07
17362;BME280;8798;51.938;4.348;2023-04-25T05:28:00;101150.25;;;8.40;69.23
17362;BME280;8798;51.938;4.348;2023-04-25T05:30:33;101194.88;;;8.51;69.15
17362;BME280;8798;51.938;4.348;2023-04-25T05:33:02;101217.59;;;8.56;69.79
17362;BME280;8798;51.938;4.348;2023-04-25T05:35:31;101209.09;;;8.51;70.07
17362;BME280;8798;51.938;4.348;2023-04-25T05:37:59;101152.16;;;8.38;69.74
17362;BME280;8798;51.938;4.348;2023-04-25T05:40:32;101110.38;;;8.26;69.68
17362;BME280;8798;51.938;4.348;2023-04-25T05:43:02;101086.84;;;8.19;70.02
17362;BME280;8798;51.938;4.348;2023-04-25T05:45:33;101073.00;;;8.14;68.94
17362;BME280;8798;51.938;4.348;2023-04-25T05:48:01;101061.69;;;8.11;69.66
17362;BME280;8798;51.938;4.348;2023-04-25T05:50:31;101075.78;;;8.13;69.40
17362;BME280;8798;51.938;4.348;2023-04-25T05:53:02;101119.66;;;8.22;69.45
17362;BME280;8798;51.938;4.348;2023-04-25T05:55:33;101143.22;;;8.28;69.26
17362;BME280;8798;51.938;4.348;2023-04-25T05:58:02;101151.88;;;8.31;70.07
17362;BME280;8798;51.938;4.348;2023-04-25T06:00:29;101174.84;;;8.34;69.65
17362;BME280;8798;51.938;4.348;2023-04-25T06:03:02;101193.44;;;8.35;69.70
17362;BME280;8798;51.938;4.348;2023-04-25T06:05:31;101191.47;;;8.37;69.10
17362;BME280;8798;51.938;4.348;2023-04-25T06:08:04;101208.28;;;8.39;69.51
17362;BME280;8798;51.938;4.348;2023-04-25T06:10:41;101213.53;;;8.41;69.07
17362;BME280;8798;51.938;4.348;2023-04-25T06:13:11;101261.66;;;8.52;69.97
17362;BME280;8798;51.938;4.348;2023-04-25T06:15:39;101317.69;;;8.65;69.27
17362;BME280;8798;51.938;4.348;2023-04-25T06:18:11;101359.78;;;8.74;69.27
17362;BME280;8798;51.938;4.348;2023-04-25T06:20:41;101375.38;;;8.80;69.48
17362;BME280;8798;51.938;4.348;2023-04-25T06:23:09;101391.19;;;8.83;69.45
17362;BME280;8798;51.938;4.348;2023-04-25T06:25:40;101380.72;;;8.80;69.27
17362;BME280;8798;51.938;4.348;2023-04-25T06:28:07;101372.81;;;8.79;69.59
17362;BME280;8798;51.938;4.348;2023-04-25T06:30:35;101366.72;;;8.77;69.37
17362;BME280;8798;51.938;4.348;2023-04-25T06:33:10;101366.72;;;8.77;69.48
17362;BME280;8798;51.938;4.348;2023-04-25T06:35:43;101384.38;;;8.79;69.57
17362;BME280;8798;51.938;4.348;2023-04-25T06:38:12;101387.06;;;8.79;69.33
17362;BME280;8798;51.938;4.348;2023-04-25T06:40:41;101378.28;;;8.77;69.76
17362;BME280;8798;51.938;4.348;2023-04-25T06:43:11;101378.16;;;8.79;69.26
17362;BME280;8798;51.938;4.348;2023-04-25T06:45:42;101381.69;;;8.79;69.71
17362;BME280;8798;51.938;4.348;2023-04-25T06:48:15;101413.34;;;8.86;69.38
17362;BME280;8798;51.938;4.348;2023-04-25T06:50:43;101464.19;;;8.97;69.54
17362;BME280;8798;51.938;4.348;2023-04-25T06:53:14;101509.59;;;9.10;69.51
17362;BME280;8798;51.938;4.348;2023-04-25T06:55:42;101538.59;;;9.16;69.76
17362;BME280;8798;51.938;4.348;2023-04-25T06:58:12;101557.81;;;9.21;69.74
17362;BME280;8798;51.938;4.348;2023-04-25T07:00:42;101580.59;;;9.26;69.74
17362;BME280;8798;51.938;4.348;2023-04-25T07:03:12;101595.47;;;9.31;69.69
17362;BME280;8798;51.938;4.348;2023-04-25T07:05:42;101600.72;;;9.32;69.53
17362;BME280;8798;51.938;4.348;2023-04-25T07:08:12;101596.31;;;9.31;69.47
17362;BME280;8798;51.938;4.348;2023-04-25T07:10:42;101577.78;;;9.28;69.63
17362;BME280;8798;51.938;4.348;2023-04-25T07:13:12;101590.94;;;9.31;69.83
17362;BME280;8798;51.938;4.348;2023-04-25T07:15:42;101652.25;;;9.47;69.47
17362;BME280;8798;51.938;4.348;2023-04-25T07:18:11;101713.63;;;9.61;69.53
17362;BME280;8798;51.938;4.348;2023-04-25T07:20:55;101752.03;;;9.73;69.44
17362;BME280;8798;51.938;4.348;2023-04-25T07:23:24;101765.94;;;9.78;69.66
17362;BME280;8798;51.938;4.348;2023-04-25T07:25:52;101780.81;;;9.82;69.30
17362;BME280;8798;51.938;4.348;2023-04-25T07:28:24;101779.81;;;9.83;69.43
17362;BME280;8798;51.938;4.348;2023-04-25T07:30:52;101744.63;;;9.77;68.99
17362;BME280;8798;51.938;4.348;2023-04-25T07:33:20;101709.47;;;9.68;69.29
17362;BME280;8798;51.938;4.348;2023-04-25T07:35:50;101670.13;;;9.58;69.25
17362;BME280;8798;51.938;4.348;2023-04-25T07:38:22;101631.47;;;9.49;69.09
17362;BME280;8798;51.938;4.348;2023-04-25T07:40:50;101599.09;;;9.41;68.67
17362;BME280;8798;51.938;4.348;2023-04-25T07:43:18;101603.34;;;9.43;68.61
17362;BME280;8798;51.938;4.348;2023-04-25T07:45:50;101589.22;;;9.41;68.61
17362;BME280;8798;51.938;4.348;2023-04-25T07:48:20;101607.50;;;9.47;68.58
17362;BME280;8798;51.938;4.348;2023-04-25T07:50:51;101626.84;;;9.51;68.26
17362;BME280;8798;51.938;4.348;2023-04-25T07:53:23;101640.88;;;9.55;68.17
17362;BME280;8798;51.938;4.348;2023-04-25T07:55:52;101623.06;;;9.54;68.16
17362;BME280;8798;51.938;4.348;2023-04-25T07:58:20;101640.63;;;9.58;68.22
17362;BME280;8798;51.938;4.348;2023-04-25T08:00:50;101670.50;;;9.64;67.92
17362;BME280;8798;51.938;4.348;2023-04-25T08:03:20;101694.97;;;9.71;67.70
17362;BME280;8798;51.938;4.348;2023-04-25T08:05:52;101681.81;;;9.68;67.79
17362;BME280;8798;51.938;4.348;2023-04-25T08:08:21;101691.31;;;9.72;67.48
17362;BME280;8798;51.938;4.348;2023-04-25T08:10:53;101707.03;;;9.77;67.31
17362;BME280;8798;51.938;4.348;2023-04-25T08:13:21;101727.00;;;9.84;67.44
17362;BME280;8798;51.938;4.348;2023-04-25T08:15:52;101784.09;;;9.97;67.22
17362;BME280;8798;51.938;4.348;2023-04-25T08:18:22;101879.72;;;10.21;67.10
17362;BME280;8798;51.938;4.348;2023-04-25T08:20:51;101968.13;;;10.46;67.65
17362;BME280;8798;51.938;4.348;2023-04-25T08:23:22;102038.22;;;10.66;66.58
17362;BME280;8798;51.938;4.348;2023-04-25T08:25:52;102099.66;;;10.82;66.81
17362;BME280;8798;51.938;4.348;2023-04-25T08:28:20;102058.09;;;10.74;66.65
17362;BME280;8798;51.938;4.348;2023-04-25T08:30:55;102019.53;;;10.64;66.12
17362;BME280;8798;51.938;4.348;2023-04-25T08:33:30;101984.09;;;10.59;66.02
17362;BME280;8798;51.938;4.348;2023-04-25T08:35:59;101962.88;;;10.56;66.01
17362;BME280;8798;51.938;4.348;2023-04-25T08:38:32;101945.38;;;10.50;65.57
17362;BME280;8798;51.938;4.348;2023-04-25T08:41:03;101903.03;;;10.43;65.52
17362;BME280;8798;51.938;4.348;2023-04-25T08:43:38;101925.88;;;10.48;65.80
17362;BME280;8798;51.938;4.348;2023-04-25T08:46:12;101939.78;;;10.53;65.28
17362;BME280;8798;51.938;4.348;2023-04-25T08:48:43;101971.25;;;10.63;65.04
17362;BME280;8798;51.938;4.348;2023-04-25T08:51:17;101983.59;;;10.65;64.98
17362;BME280;8798;51.938;4.348;2023-04-25T08:53:52;102001.94;;;10.71;64.99
17362;BME280;8798;51.938;4.348;2023-04-25T08:56:27;101986.75;;;10.70;64.77
17362;BME280;8798;51.938;4.348;2023-04-25T08:58:56;101947.09;;;10.63;65.04
17362;BME280;8798;51.938;4.348;2023-04-25T09:01:29;101890.81;;;10.50;64.61
17362;BME280;8798;51.938;4.348;2023-04-25T09:04:02;101852.25;;;10.40;64.66
17362;BME280;8798;51.938;4.348;2023-04-25T09:06:32;101855.78;;;10.40;64.67
17362;BME280;8798;51.938;4.348;2023-04-25T09:09:02;101871.28;;;10.48;64.33
17362;BME280;8798;51.938;4.348;2023-04-25T09:11:35;101919.63;;;10.59;63.99
17362;BME280;8798;51.938;4.348;2023-04-25T09:14:12;101987.13;;;10.77;64.50
17362;BME280;8798;51.938;4.348;2023-04-25T09:17:00;102018.50;;;10.88;63.91
17362;BME280;8798;51.938;4.348;2023-04-25T09:19:29;101952.72;;;10.71;64.04
17362;BME280;8798;51.938;4.348;2023-04-25T09:22:04;101878.00;;;10.53;63.86
17362;BME280;8798;51.938;4.348;2023-04-25T09:24:34;101858.56;;;10.50;63.52
17362;BME280;8798;51.938;4.348;2023-04-25T09:27:06;101855.88;;;10.50;63.53
17362;BME280;8798;51.938;4.348;2023-04-25T09:29:37;101850.66;;;10.48;63.44
17362;BME280;8798;51.938;4.348;2023-04-25T09:32:16;101871.63;;;10.54;63.39
17362;BME280;8798;51.938;4.348;2023-04-25T09:34:46;101897.03;;;10.62;63.20
17362;BME280;8798;51.938;4.348;2023-04-25T09:37:23;101883.69;;;10.60;63.17
17362;BME280;8798;51.938;4.348;2023-04-25T09:39:53;101871.53;;;10.56;63.04
17362;BME280;8798;51.938;4.348;2023-04-25T09:42:25;101878.22;;;10.62;62.92
17362;BME280;8798;51.938;4.348;2023-04-25T09:45:00;101925.69;;;10.72;62.77
17362;BME280;8798;51.938;4.348;2023-04-25T09:47:38;101958.19;;;10.81;63.15
17362;BME280;8798;51.938;4.348;2023-04-25T09:50:14;101965.00;;;10.85;62.47
17362;BME280;8798;51.938;4.348;2023-04-25T09:52:44;101956.19;;;10.83;62.45
17362;BME280;8798;51.938;4.348;2023-04-25T09:55:12;101969.41;;;10.86;62.68
17362;BME280;8798;51.938;4.348;2023-04-25T09:57:42;101979.75;;;10.90;62.85
17362;BME280;8798;51.938;4.348;2023-04-25T10:00:13;102003.47;;;10.96;62.90
17362;BME280;8798;51.938;4.348;2023-04-25T10:02:42;102018.38;;;11.01;62.74
17362;BME280;8798;51.938;4.348;2023-04-25T10:05:13;102004.94;;;11.01;62.57
17362;BME280;8798;51.938;4.348;2023-04-25T10:07:41;102021.66;;;11.04;62.63
17362;BME280;8798;51.938;4.348;2023-04-25T10:10:12;102031.94;;;11.10;62.49
17362;BME280;8798;51.938;4.348;2023-04-25T10:12:43;102107.56;;;11.28;62.08
17362;BME280;8798;51.938;4.348;2023-04-25T10:15:13;102145.19;;;11.39;62.14
17362;BME280;8798;51.938;4.348;2023-04-25T10:17:43;102111.47;;;11.35;62.33
17362;BME280;8798;51.938;4.348;2023-04-25T10:20:11;102043.16;;;11.15;61.53
17362;BME280;8798;51.938;4.348;2023-04-25T10:22:43;101981.59;;;11.01;62.04
17362;BME280;8798;51.938;4.348;2023-04-25T10:25:13;101948.13;;;10.94;61.44
17362;BME280;8798;51.938;4.348;2023-04-25T10:27:44;101970.84;;;11.01;61.51
17362;BME280;8798;51.938;4.348;2023-04-25T10:30:13;102003.31;;;11.09;61.08
17362;BME280;8798;51.938;4.348;2023-04-25T10:32:43;102042.75;;;11.20;61.25
17362;BME280;8798;51.938;4.348;2023-04-25T10:35:13;102074.16;;;11.31;61.32
17362;BME280;8798;51.938;4.348;2023-04-25T10:38:05;102111.09;;;11.40;61.11
17362;BME280;8798;51.938;4.348;2023-04-25T10:40:40;102096.06;;;11.37;61.33
17362;BME280;8798;51.938;4.348;2023-04-25T10:43:36;102076.59;;;11.34;60.86
17362;BME280;8798;51.938;4.348;2023-04-25T10:46:33;102066.84;;;11.33;60.81
17362;BME280;8798;51.938;4.348;2023-04-25T10:49:03;102082.34;;;11.40;61.15
17362;BME280;8798;51.938;4.348;2023-04-25T10:51:33;102136.84;;;11.54;60.70
17362;BME280;8798;51.938;4.348;2023-04-25T10:54:22;102211.41;;;11.74;60.64
17362;BME280;8798;51.938;4.348;2023-04-25T10:56:52;102272.84;;;11.92;60.77
17362;BME280;8798;51.938;4.348;2023-04-25T10:59:24;102251.72;;;11.87;60.72
17362;BME280;8798;51.938;4.348;2023-04-25T11:01:53;102193.47;;;11.75;60.73
17362;BME280;8798;51.938;4.348;2023-04-25T11:04:22;102136.22;;;11.61;60.14
17362;BME280;8798;51.938;4.348;2023-04-25T11:07:07;102151.13;;;11.66;60.67
17362;BME280;8798;51.938;4.348;2023-04-25T11:09:44;102149.19;;;11.68;60.06
17362;BME280;8798;51.938;4.348;2023-04-25T11:12:19;102115.66;;;11.60;60.35
17362;BME280;8798;51.938;4.348;2023-04-25T11:15:05;102058.44;;;11.47;60.40
17362;BME280;8798;51.938;4.348;2023-04-25T11:17:40;102047.00;;;11.45;60.11
17362;BME280;8798;51.938;4.348;2023-04-25T11:20:14;102037.19;;;11.44;60.66
17362;BME280;8798;51.938;4.348;2023-04-25T11:22:44;101994.91;;;11.35;60.12
17362;BME280;8798;51.938;4.348;2023-04-25T11:25:13;101964.16;;;11.28;60.45
17362;BME280;8798;51.938;4.348;2023-04-25T11:27:51;101938.75;;;11.21;59.93
17362;BME280;8798;51.938;4.348;2023-04-25T11:30:25;101888.53;;;11.10;60.27
17362;BME280;8798;51.938;4.348;2023-04-25T11:33:00;101891.84;;;11.13;60.23
17362;BME280;8798;51.938;4.348;2023-04-25T11:35:31;101961.31;;;11.29;60.01
17362;BME280;8798;51.938;4.348;2023-04-25T11:38:02;102049.25;;;11.50;59.47
17362;BME280;8798;51.938;4.348;2023-04-25T11:40:32;102101.84;;;11.65;59.86
17362;BME280;8798;51.938;4.348;2023-04-25T11:43:05;102075.31;;;11.60;59.82
17362;BME280;8798;51.938;4.348;2023-04-25T11:45:46;102043.50;;;11.54;59.90
17362;BME280;8798;51.938;4.348;2023-04-25T11:48:16;101998.66;;;11.44;59.71
17362;BME280;8798;51.938;4.348;2023-04-25T11:51:06;102009.78;;;11.50;59.27
17362;BME280;8798;51.938;4.348;2023-04-25T11:53:42;102017.84;;;11.50;59.45
17362;BME280;8798;51.938;4.348;2023-04-25T11:56:14;102045.09;;;11.57;59.18
17362;BME280;8798;51.938;4.348;2023-04-25T11:59:00;102095.94;;;11.71;59.21
17362;BME280;8798;51.938;4.348;2023-04-25T12:01:34;102144.22;;;11.84;58.70
17362;BME280;8798;51.938;4.348;2023-04-25T12:04:14;102163.56;;;11.89;58.96
17362;BME280;8798;51.938;4.348;2023-04-25T12:06:44;102118.53;;;11.80;58.35
17362;BME280;8798;51.938;4.348;2023-04-25T12:09:16;102092.84;;;11.76;58.61
17362;BME280;8798;51.938;4.348;2023-04-25T12:11:54;102070.75;;;11.72;58.47
17362;BME280;8798;51.938;4.348;2023-04-25T12:14:25;102121.97;;;11.82;58.10
17362;BME280;8798;51.938;4.348;2023-04-25T12:16:56;102127.84;;;11.87;58.68
17362;BME280;8798;51.938;4.348;2023-04-25T12:19:33;102088.19;;;11.78;58.70
17362;BME280;8798;51.938;4.348;2023-04-25T12:22:02;102009.97;;;11.58;58.11
17362;BME280;8798;51.938;4.348;2023-04-25T12:24:33;101956.94;;;11.49;58.26
17362;BME280;8798;51.938;4.348;2023-04-25T12:27:06;101958.78;;;11.49;58.54
17362;BME280;8798;51.938;4.348;2023-04-25T12:29:38;102020.22;;;11.65;57.88
17362;BME280;8798;51.938;4.348;2023-04-25T12:32:17;102095.75;;;11.84;57.76
17362;BME280;8798;51.938;4.348;2023-04-25T12:34:53;102153.75;;;11.99;57.92
17362;BME280;8798;51.938;4.348;2023-04-25T12:37:21;102161.56;;;12.02;58.27
17362;BME280;8798;51.938;4.348;2023-04-25T12:39:49;102155.34;;;12.02;58.40
17362;BME280;8798;51.938;4.348;2023-04-25T12:42:22;102145.53;;;12.01;58.13
17362;BME280;8798;51.938;4.348;2023-04-25T12:44:51;102146.38;;;12.01;57.63
17362;BME280;8798;51.938;4.348;2023-04-25T12:47:24;102192.88;;;12.15;57.69
17362;BME280;8798;51.938;4.348;2023-04-25T12:49:52;102209.22;;;12.23;57.91
17362;BME280;8798;51.938;4.348;2023-04-25T12:52:24;102254.28;;;12.32;57.87
17362;BME280;8798;51.938;4.348;2023-04-25T12:54:53;102246.19;;;12.32;57.38
17362;BME280;8798;51.938;4.348;2023-04-25T12:57:21;102214.34;;;12.26;57.23
17362;BME280;8798;51.938;4.348;2023-04-25T12:59:52;102172.16;;;12.15;57.18
17362;BME280;8798;51.938;4.348;2023-04-25T13:02:21;102170.19;;;12.17;57.31
17362;BME280;8798;51.938;4.348;2023-04-25T13:04:55;102232.44;;;12.35;57.09
17362;BME280;8798;51.938;4.348;2023-04-25T13:07:24;102239.41;;;12.38;57.52
17362;BME280;8798;51.938;4.348;2023-04-25T13:09:53;102276.25;;;12.48;57.12
17362;BME280;8798;51.938;4.348;2023-04-25T13:12:20;102309.66;;;12.57;57.05
17362;BME280;8798;51.938;4.348;2023-04-25T13:14:48;102244.31;;;12.44;56.59
17362;BME280;8798;51.938;4.348;2023-04-25T13:17:16;102181.63;;;12.31;56.67
17362;BME280;8798;51.938;4.348;2023-04-25T13:19:54;102238.66;;;12.47;57.06
17362;BME280;8798;51.938;4.348;2023-04-25T13:22:23;102249.28;;;12.48;56.67
17362;BME280;8798;51.938;4.348;2023-04-25T13:24:51;102227.25;;;12.43;56.51
17362;BME280;8798;51.938;4.348;2023-04-25T13:27:23;102222.59;;;12.45;56.36
17362;BME280;8798;51.938;4.348;2023-04-25T13:29:51;102117.06;;;12.19;56.58